OIII Airport Information

Runway Information
Runway 09 Length 1554 ft width 130 ft
Elevation ft Threshold ft Heading 89
Runway 27 Length 1554 ft Width 130 ft
Elevation ft Threshold ft Heading 269
Runway 11R Length 13248 ft width 197 ft
Elevation 3949 ft Threshold 3075 ft Heading 109
Runway 29L Length 13248 ft Width 197 ft
Elevation 3794 ft Threshold ft Heading 289
Runway 11L Length 13098 ft width 148 ft
Elevation 3962 ft Threshold ft Heading 109
Runway 29R Length 13098 ft Width 148 ft
Elevation 3797 ft Threshold ft Heading 289
Airport Frequencies
Type APP Name APP Frequency 119.7 MHZ
Type ATIS Name ATIS Frequency 128 MHZ
Type GND Name GND Frequency 121.7 MHZ
Type TWR Name TWR Frequency 118.1 MHZ
Airport Navaids
Type TACAN Name Tehran Frequency 113300 KHZ
Type VOR-DME Name Tehran Frequency 115300 KHZ
Airport Weather Information & NOTAM
ADDS - METARS form results

(2132 UTC 29 June 2022)
Data provider http://aviationweather.gov/metar/data/
 
METAR text: OIII 292130Z 29006KT 7000 NSC 27/07 Q1007 A2976
Conditions at: OIII (TEHRAN/MEHRABAD , IR) observed 2130 UTC 29 June 2022
Temperature: 27.0°C (81°F)
Dewpoint: 7.0°C (45°F) [RH = 28%]
Pressure (altimeter): 29.73 inches Hg (1007.0 mb)
Winds: from the WNW (290 degrees) at 7 MPH (6 knots; 3.1 m/s)
Visibility: 4 miles ( 7 km)
Ceiling: at least 12,000 feet AGL
Clouds: sky clear below 12,000 feet AGL
Weather: no significant weather observed at this time

METAR text: OIII 292100Z 27010KT 7000 NSC 28/07 Q1007 A2975
Conditions at: OIII (TEHRAN/MEHRABAD , IR) observed 2100 UTC 29 June 2022
Temperature: 28.0°C (82°F)
Dewpoint: 7.0°C (45°F) [RH = 27%]
Pressure (altimeter): 29.73 inches Hg (1007.0 mb)
Winds: from the W (270 degrees) at 12 MPH (10 knots; 5.1 m/s)
Visibility: 4 miles ( 7 km)
Ceiling: at least 12,000 feet AGL
Clouds: sky clear below 12,000 feet AGL
Weather: no significant weather observed at this time

Forecast for: OIII (TEHRAN/MEHRABAD , IR)
Text: TAF OIII 291730Z 2918/3024 33006KT 7000 NSC
Forecast period: 1800 UTC 29 June 2022 to 0000 UTC 01 July 2022
Forecast type: FROM: standard forecast or significant change
Winds: from the NNW (330 degrees) at 7 MPH (6 knots; 3.1 m/s)
Visibility: 4 miles (7 km)
Ceiling: unknown
Clouds: missing
Weather: no significant weather forecast for this period
Text: TEMPO 2918/2922 28016KT 5000 DU
Forecast period: 1800 to 2200 UTC 29 June 2022
Forecast type: TEMPORARY: The following changes expected for less than half the time period
Winds: from the W (280 degrees) at 18 MPH (16 knots; 8.2 m/s)
Visibility: 3 miles (5 km)
Ceiling: unknown
Clouds: missing
Weather: DU  (widespread dust)
Text: TEMPO 3008/3015 15012KT
Forecast period: 0800 to 1500 UTC 30 June 2022
Forecast type: TEMPORARY: The following changes expected for less than half the time period
Winds: from the SSE (150 degrees) at 14 MPH (12 knots; 6.2 m/s)
Visibility: missing
Ceiling: unknown
Clouds: missing
Weather: no significant weather forecast for this period